createdAt,value
2019-04-21T00:01:44.162Z,69.23
2019-04-21T00:04:24.769Z,69.40
2019-04-21T00:07:03.283Z,70.67
2019-04-21T00:12:04.261Z,69.86
2019-04-21T00:14:27.517Z,69.75
2019-04-21T00:16:55.569Z,70.60
2019-04-21T00:19:36.662Z,69.67
2019-04-21T00:22:14.905Z,70.10
2019-04-21T00:24:51.888Z,69.82
2019-04-21T00:27:24.569Z,70.90
2019-04-21T00:29:58.787Z,70.25
2019-04-21T00:32:21.851Z,68.74
2019-04-21T00:34:43.263Z,69.99
2019-04-21T00:37:20.791Z,72.04
2019-04-21T00:40:06.169Z,73.49
2019-04-21T00:42:30.231Z,73.67
2019-04-21T00:45:00.527Z,75.21
2019-04-21T00:47:34.210Z,75.29
2019-04-21T00:50:07.489Z,75.72
2019-04-21T00:53:02.266Z,75.73
2019-04-21T00:55:44.367Z,74.53
2019-04-21T00:58:18.358Z,73.91
2019-04-21T01:00:46.470Z,73.64
2019-04-21T01:03:23.046Z,72.85
2019-04-21T01:05:51.476Z,73.64
2019-04-21T01:08:19.997Z,72.06
2019-04-21T01:10:38.367Z,70.33
2019-04-21T01:13:23.402Z,70.83
2019-04-21T01:15:55.789Z,71.60
2019-04-21T01:18:20.640Z,70.46
2019-04-21T01:20:33.129Z,70.06
2019-04-21T01:23:02.390Z,70.21
2019-04-21T01:25:38.166Z,70.56
2019-04-21T01:28:21.365Z,70.92
2019-04-21T01:30:55.381Z,72.37
2019-04-21T01:33:27.600Z,72.97
2019-04-21T01:35:55.487Z,73.58
2019-04-21T01:38:32.783Z,75.55
2019-04-21T01:40:59.402Z,74.85
2019-04-21T01:43:27.754Z,76.27
2019-04-21T01:45:59.638Z,75.63
2019-04-21T01:48:26.724Z,75.18
2019-04-21T01:50:57.756Z,76.22
2019-04-21T01:53:43.506Z,77.39
2019-04-21T01:56:24.103Z,77.62
2019-04-21T01:58:48.263Z,78.14
2019-04-21T02:01:30.118Z,78.39
2019-04-21T02:04:22.732Z,78.54
2019-04-21T02:06:44.613Z,79.22
2019-04-21T02:08:57.955Z,79.11
2019-04-21T02:11:40.856Z,79.71
2019-04-21T02:14:10.196Z,80.17
2019-04-21T02:16:34.533Z,80.32
2019-04-21T02:19:04.427Z,80.15
2019-04-21T02:21:31.974Z,78.92
2019-04-21T02:24:16.983Z,77.33
2019-04-21T02:26:41.566Z,76.21
2019-04-21T02:29:18.984Z,76.46
2019-04-21T02:31:55.425Z,74.44
2019-04-21T02:34:13.475Z,74.80
2019-04-21T02:37:14.771Z,74.97
2019-04-21T02:39:29.511Z,75.21
2019-04-21T02:41:55.715Z,76.08
2019-04-21T02:44:30.163Z,76.02
2019-04-21T02:46:46.688Z,77.15
2019-04-21T02:49:37.765Z,74.25
2019-04-21T02:52:03.407Z,74.92
2019-04-21T02:54:47.987Z,74.59
2019-04-21T02:57:08.961Z,73.02
2019-04-21T03:02:43.382Z,75.02
2019-04-21T03:05:20.331Z,74.36
2019-04-21T03:07:50.270Z,74.27
2019-04-21T03:10:17.825Z,75.66
2019-04-21T03:12:45.861Z,76.37
2019-04-21T03:15:21.312Z,76.69
2019-04-21T03:18:04.707Z,76.87
2019-04-21T03:22:53.165Z,79.31
2019-04-21T03:25:33.693Z,80.20
2019-04-21T03:30:53.163Z,80.53
2019-04-21T03:33:23.800Z,81.11
2019-04-21T03:38:06.186Z,81.73
2019-04-21T03:40:26.209Z,81.50
2019-04-21T03:48:01.221Z,79.04
2019-04-21T03:53:11.177Z,80.07
2019-04-21T03:58:16.955Z,82.53
2019-04-21T04:06:28.055Z,80.48
2019-04-21T04:09:09.658Z,80.80
2019-04-21T04:11:38.180Z,81.28
2019-04-21T04:14:04.087Z,82.22
2019-04-21T04:16:38.025Z,81.75
2019-04-21T04:19:01.599Z,82.32
2019-04-21T04:24:05.350Z,82.15
2019-04-21T04:29:19.935Z,83.92
2019-04-21T04:31:41.630Z,83.83
2019-04-21T04:36:59.315Z,84.35
2019-04-21T04:42:25.678Z,83.84
2019-04-21T04:47:17.634Z,83.66
2019-04-21T04:52:31.264Z,83.78
2019-04-21T04:54:55.143Z,83.55
2019-04-21T05:00:01.212Z,82.20
2019-04-21T05:02:30.488Z,82.60
2019-04-21T05:10:07.546Z,82.06
2019-04-21T05:12:25.412Z,81.50
2019-04-21T05:15:04.523Z,81.93
2019-04-21T05:24:51.224Z,81.18
2019-04-21T05:27:39.947Z,80.35
2019-04-21T05:30:29.070Z,80.24
2019-04-21T05:33:19.250Z,80.59
2019-04-21T05:35:53.060Z,79.95
2019-04-21T05:38:30.359Z,79.91
2019-04-21T05:40:55.160Z,78.73
2019-04-21T05:43:32.829Z,78.29
2019-04-21T05:46:04.702Z,77.98
2019-04-21T05:48:39.505Z,76.47
2019-04-21T05:51:03.760Z,75.49
2019-04-21T05:53:42.717Z,75.78
2019-04-21T05:56:16.046Z,75.09
2019-04-21T05:58:43.741Z,75.50
2019-04-21T06:01:24.317Z,74.61
2019-04-21T06:03:53.178Z,75.18
2019-04-21T06:06:27.541Z,73.82
2019-04-21T06:08:52.628Z,66.21
2019-04-21T06:11:28.995Z,55.71
2019-04-21T06:14:04.170Z,53.83
2019-04-21T06:16:36.425Z,50.90
2019-04-21T06:19:04.723Z,47.72
2019-04-21T06:21:35.725Z,48.68
2019-04-21T06:24:13.404Z,51.83
2019-04-21T06:29:08.670Z,54.63
2019-04-21T06:32:18.749Z,56.22
2019-04-21T06:34:19.861Z,56.67
2019-04-21T06:37:32.197Z,57.87
2019-04-21T06:39:56.313Z,57.56
2019-04-21T06:42:14.773Z,61.74
2019-04-21T06:44:55.421Z,60.90
2019-04-21T06:47:24.670Z,59.93
2019-04-21T06:49:52.425Z,61.60
2019-04-21T06:52:44.216Z,62.98
2019-04-21T06:54:54.952Z,62.54
2019-04-21T06:59:59.968Z,62.37
2019-04-21T07:05:09.051Z,60.63
2019-04-21T07:07:40.536Z,61.74
2019-04-21T07:10:16.877Z,59.64
2019-04-21T07:12:39.432Z,57.98
2019-04-21T07:15:22.307Z,57.70
2019-04-21T07:17:45.581Z,56.16
2019-04-21T07:20:22.004Z,54.12
2019-04-21T07:22:56.855Z,54.79
2019-04-21T07:25:28.586Z,53.25
2019-04-21T07:27:56.700Z,53.86
2019-04-21T07:30:31.737Z,52.16
2019-04-21T07:33:07.204Z,52.50
2019-04-21T07:35:31.790Z,49.74
2019-04-21T07:37:59.126Z,49.32
2019-04-21T07:40:29.064Z,47.82
2019-04-21T07:43:02.730Z,48.15
2019-04-21T07:45:32.163Z,49.52
2019-04-21T07:48:13.785Z,47.98
2019-04-21T07:51:02.261Z,49.54
2019-04-21T07:53:40.660Z,48.00
2019-04-21T07:55:51.137Z,47.15
2019-04-21T07:58:47.595Z,48.93
2019-04-21T08:03:47.845Z,47.62
2019-04-21T08:06:12.826Z,45.53
2019-04-21T08:08:48.931Z,44.51
2019-04-21T08:11:22.437Z,46.27
2019-04-21T08:13:55.067Z,44.97
2019-04-21T08:16:25.413Z,44.51
2019-04-21T08:18:59.781Z,43.29
2019-04-21T08:21:27.947Z,41.78
2019-04-21T08:23:55.213Z,42.62
2019-04-21T08:26:35.996Z,44.18
2019-04-21T08:29:12.669Z,41.97
2019-04-21T08:31:38.754Z,43.85
2019-04-21T08:34:08.362Z,43.63
2019-04-21T08:36:35.306Z,40.83
2019-04-21T08:39:08.774Z,39.67
2019-04-21T08:41:41.106Z,39.24
2019-04-21T08:44:20.572Z,40.88
2019-04-21T08:46:52.828Z,40.33
2019-04-21T08:49:22.155Z,39.41
2019-04-21T08:52:04.053Z,37.53
2019-04-21T08:57:08.161Z,39.74
2019-04-21T09:00:01.353Z,39.55
2019-04-21T09:02:35.285Z,38.74
2019-04-21T09:05:04.781Z,38.02
2019-04-21T09:07:39.428Z,35.56
2019-04-21T09:10:09.703Z,38.55
2019-04-21T09:12:43.281Z,35.76
2019-04-21T09:15:14.387Z,35.03
2019-04-21T09:17:39.199Z,37.31
2019-04-21T09:20:17.031Z,37.16
2019-04-21T09:22:50.545Z,35.63
2019-04-21T09:25:19.691Z,35.53
2019-04-21T09:27:47.119Z,36.03
2019-04-21T09:30:04.915Z,35.77
2019-04-21T09:32:38.518Z,35.78
2019-04-21T09:35:12.465Z,34.43
2019-04-21T09:37:49.405Z,34.30
2019-04-21T09:40:13.502Z,34.31
2019-04-21T09:42:53.260Z,33.33
2019-04-21T09:45:15.652Z,31.72
2019-04-21T09:47:55.638Z,34.04
2019-04-21T09:50:17.410Z,31.73
2019-04-21T09:52:52.834Z,33.42
2019-04-21T09:55:22.537Z,31.95
2019-04-21T09:57:55.045Z,32.62
2019-04-21T10:00:25.365Z,32.00
2019-04-21T10:03:00.821Z,33.07
2019-04-21T10:05:25.114Z,31.57
2019-04-21T10:07:57.503Z,30.23
2019-04-21T10:10:27.575Z,30.68
2019-04-21T10:13:00.626Z,29.72
2019-04-21T10:15:30.073Z,29.72
2019-04-21T10:18:03.096Z,28.06
2019-04-21T10:20:32.907Z,27.59
2019-04-21T10:23:02.918Z,28.39
2019-04-21T10:25:32.482Z,28.58
2019-04-21T10:28:03.344Z,28.97
2019-04-21T10:30:32.976Z,27.86
2019-04-21T10:33:02.519Z,27.14
2019-04-21T10:35:32.875Z,27.58
2019-04-21T10:38:16.965Z,27.58
2019-04-21T10:40:37.227Z,27.52
2019-04-21T10:43:09.074Z,26.62
2019-04-21T10:45:37.266Z,27.56
2019-04-21T10:48:12.773Z,26.39
2019-04-21T10:50:45.359Z,27.23
2019-04-21T10:53:23.010Z,27.23
2019-04-21T10:56:03.188Z,26.54
2019-04-21T10:58:32.157Z,25.91
2019-04-21T11:01:10.591Z,25.94
2019-04-21T11:04:02.705Z,25.94
2019-04-21T11:06:32.668Z,25.12
2019-04-21T11:09:03.689Z,25.69
2019-04-21T11:11:34.157Z,22.94
2019-04-21T11:14:06.960Z,22.94
2019-04-21T11:16:39.209Z,23.13
2019-04-21T11:19:10.116Z,24.15
2019-04-21T11:21:40.777Z,24.15
2019-04-21T11:24:10.289Z,22.79
2019-04-21T11:26:40.117Z,23.26
2019-04-21T11:29:10.670Z,23.78
2019-04-21T11:31:41.348Z,23.78
2019-04-21T11:34:11.326Z,24.08
2019-04-21T11:36:43.920Z,22.54
2019-04-21T11:39:31.610Z,22.54
2019-04-21T11:41:52.317Z,24.52
2019-04-21T11:44:24.262Z,24.52
2019-04-21T11:46:54.381Z,24.21
2019-04-21T11:49:24.233Z,22.25
2019-04-21T11:51:56.489Z,21.81
2019-04-21T11:54:26.744Z,21.96
2019-04-21T11:56:56.963Z,21.96
2019-04-21T11:59:26.407Z,21.15
2019-04-21T12:01:57.288Z,19.91
2019-04-21T12:04:27.527Z,20.90
2019-04-21T12:06:57.904Z,20.90
2019-04-21T12:09:27.391Z,21.77
2019-04-21T12:11:57.046Z,19.70
2019-04-21T12:14:26.373Z,20.20
2019-04-21T12:16:55.696Z,20.79
2019-04-21T12:19:27.085Z,19.36
2019-04-21T12:22:05.327Z,19.66
2019-04-21T12:24:31.289Z,19.51
2019-04-21T12:27:00.163Z,20.62
2019-04-21T12:29:30.701Z,19.80
2019-04-21T12:32:17.994Z,19.56
2019-04-21T12:34:50.501Z,19.77
2019-04-21T12:37:19.260Z,19.88
2019-04-21T12:39:48.739Z,20.33
2019-04-21T12:42:18.589Z,21.17
2019-04-21T12:44:49.452Z,19.94
2019-04-21T12:47:19.649Z,20.71
2019-04-21T12:49:49.840Z,19.95
2019-04-21T12:52:19.872Z,20.68
2019-04-21T12:54:49.301Z,19.53
2019-04-21T12:57:19.226Z,19.70
2019-04-21T12:59:48.771Z,20.35
2019-04-21T13:02:17.928Z,19.79
2019-04-21T13:04:49.232Z,18.33
2019-04-21T13:07:19.344Z,18.02
2019-04-21T13:09:48.682Z,19.74
2019-04-21T13:12:19.282Z,19.08
2019-04-21T13:14:49.611Z,18.46
2019-04-21T13:17:19.478Z,18.53
2019-04-21T13:19:49.534Z,18.37
2019-04-21T13:22:19.089Z,18.78
2019-04-21T13:24:49.625Z,18.00
2019-04-21T13:27:22.636Z,18.89
2019-04-21T13:29:52.776Z,19.21
2019-04-21T13:32:21.987Z,19.07
2019-04-21T13:34:52.668Z,19.66
2019-04-21T13:37:23.574Z,18.55
2019-04-21T13:40:38.879Z,20.33
2019-04-21T13:42:55.086Z,19.34
2019-04-21T13:45:23.994Z,18.25
2019-04-21T13:47:56.738Z,18.05
2019-04-21T13:50:26.446Z,18.91
2019-04-21T13:52:56.917Z,18.89
2019-04-21T13:55:27.566Z,18.11
2019-04-21T13:57:58.826Z,18.05
2019-04-21T14:00:29.728Z,18.13
2019-04-21T14:03:00.724Z,17.57
2019-04-21T14:05:30.683Z,18.08
2019-04-21T14:08:03.147Z,19.18
2019-04-21T14:10:33.564Z,17.78
2019-04-21T14:13:04.550Z,18.47
2019-04-21T14:15:35.698Z,18.02
2019-04-21T14:18:06.850Z,18.19
2019-04-21T14:20:37.436Z,19.40
2019-04-21T14:23:17.191Z,17.55
2019-04-21T14:25:39.325Z,18.51
2019-04-21T14:28:12.234Z,17.78
2019-04-21T14:30:41.455Z,18.87
2019-04-21T14:33:11.999Z,17.32
2019-04-21T14:35:43.068Z,17.70
2019-04-21T14:38:14.387Z,18.19
2019-04-21T14:40:44.106Z,18.42
2019-04-21T14:43:14.273Z,17.61
2019-04-21T14:46:06.438Z,16.98
2019-04-21T14:49:03.543Z,18.07
2019-04-21T14:52:07.285Z,18.67
2019-04-21T14:55:00.508Z,17.83
2019-04-21T14:57:31.542Z,18.12
2019-04-21T15:00:03.036Z,18.23
2019-04-21T15:02:33.915Z,18.03
2019-04-21T15:05:04.014Z,16.83
2019-04-21T15:07:33.353Z,17.34
2019-04-21T15:10:13.275Z,18.57
2019-04-21T15:12:36.099Z,17.45
2019-04-21T15:15:06.029Z,17.85
2019-04-21T15:17:35.907Z,17.22
2019-04-21T15:20:11.155Z,18.12
2019-04-21T15:22:38.582Z,18.17
2019-04-21T15:25:10.031Z,16.79
2019-04-21T15:27:41.163Z,15.55
2019-04-21T15:30:12.745Z,15.34
2019-04-21T15:32:42.303Z,16.87
2019-04-21T15:35:13.167Z,19.44
2019-04-21T15:37:44.172Z,16.75
2019-04-21T15:40:25.118Z,17.21
2019-04-21T15:42:46.486Z,19.64
2019-04-21T15:45:16.780Z,17.35
2019-04-21T15:47:47.587Z,18.11
2019-04-21T15:50:19.445Z,18.63
2019-04-21T15:52:49.710Z,17.76
2019-04-21T15:55:39.027Z,17.19
2019-04-21T15:58:16.437Z,17.04
2019-04-21T16:01:12.285Z,16.46
2019-04-21T16:03:42.861Z,18.65
2019-04-21T16:06:15.345Z,18.49
2019-04-21T16:08:47.559Z,16.81
2019-04-21T16:11:15.751Z,17.08
2019-04-21T16:13:45.859Z,17.89
2019-04-21T16:16:16.762Z,17.74
2019-04-21T16:18:46.107Z,18.60
2019-04-21T16:21:15.946Z,18.23
2019-04-21T16:23:46.532Z,17.69
2019-04-21T16:26:17.044Z,18.69
2019-04-21T16:28:46.915Z,19.24
2019-04-21T16:31:16.441Z,21.18
2019-04-21T16:33:47.134Z,19.64
2019-04-21T16:36:18.112Z,19.64
2019-04-21T16:38:49.274Z,21.39
2019-04-21T16:41:20.230Z,19.61
2019-04-21T16:43:51.400Z,18.85
2019-04-21T16:46:21.101Z,19.09
2019-04-21T16:48:51.649Z,18.99
2019-04-21T16:51:24.560Z,20.17
2019-04-21T16:54:04.410Z,20.17
2019-04-21T16:56:51.921Z,21.04
2019-04-21T16:59:32.712Z,21.68
2019-04-21T17:02:05.041Z,19.72
2019-04-21T17:04:36.292Z,19.72
2019-04-21T17:07:07.472Z,20.33
2019-04-21T17:09:38.834Z,23.29
2019-04-21T17:12:11.932Z,23.29
2019-04-21T17:14:53.169Z,22.29
2019-04-21T17:17:37.252Z,22.07
2019-04-21T17:19:49.921Z,22.39
2019-04-21T17:22:17.671Z,22.08
2019-04-21T17:24:48.420Z,22.24
2019-04-21T17:27:18.032Z,22.15
2019-04-21T17:29:48.689Z,23.25
2019-04-21T17:32:18.435Z,23.12
2019-04-21T17:34:47.972Z,22.59
2019-04-21T17:37:20.066Z,23.03
2019-04-21T17:39:49.187Z,23.03
2019-04-21T17:42:26.556Z,22.20
2019-04-21T17:44:49.363Z,22.01
2019-04-21T17:47:28.903Z,22.01
2019-04-21T17:50:11.599Z,21.57
2019-04-21T17:52:55.624Z,21.60
2019-04-21T17:55:29.407Z,21.34
2019-04-21T17:58:11.586Z,21.37
2019-04-21T18:03:34.993Z,20.98
2019-04-21T18:05:50.534Z,20.91
2019-04-21T18:08:22.891Z,21.47
2019-04-21T18:10:52.821Z,21.47
2019-04-21T18:13:12.010Z,21.04
2019-04-21T18:15:53.509Z,21.10
2019-04-21T18:18:10.330Z,21.29
2019-04-21T18:20:41.972Z,21.29
2019-04-21T18:23:46.957Z,22.03
2019-04-21T18:26:23.275Z,21.77
2019-04-21T18:28:40.917Z,21.98
2019-04-21T18:31:14.714Z,22.59
2019-04-21T18:34:01.400Z,22.59
2019-04-21T18:36:49.859Z,24.19
2019-04-21T18:39:52.702Z,22.91
2019-04-21T18:42:32.778Z,23.13
2019-04-21T18:45:55.299Z,22.97
2019-04-21T18:48:21.840Z,22.97
2019-04-21T18:50:57.306Z,22.85
2019-04-21T18:53:44.978Z,23.86
2019-04-21T18:56:05.266Z,23.06
2019-04-21T18:58:30.815Z,23.43
2019-04-21T19:01:07.573Z,23.30
2019-04-21T19:03:38.877Z,23.62
2019-04-21T19:06:10.812Z,23.50
2019-04-21T19:08:53.333Z,24.31
2019-04-21T19:11:23.999Z,24.60
2019-04-21T19:14:30.377Z,24.21
2019-04-21T19:16:49.610Z,24.17
2019-04-21T19:21:50.421Z,25.19
2019-04-21T19:24:24.287Z,25.16
2019-04-21T19:27:08.058Z,25.32
2019-04-21T19:32:11.925Z,26.72
2019-04-21T19:34:14.433Z,27.81
2019-04-21T19:36:37.092Z,28.31
2019-04-21T19:39:17.353Z,28.19
2019-04-21T19:41:57.678Z,28.79
2019-04-21T19:44:32.333Z,28.69
2019-04-21T19:47:06.564Z,28.78
2019-04-21T19:49:39.889Z,28.53
2019-04-21T19:51:54.053Z,28.80
2019-04-21T19:54:25.234Z,28.62
2019-04-21T19:56:47.276Z,28.77
2019-04-21T19:59:22.068Z,28.66
2019-04-21T20:01:49.988Z,28.85
2019-04-21T20:04:18.332Z,28.87
2019-04-21T20:07:01.143Z,28.47
2019-04-21T20:09:38.060Z,28.80
2019-04-21T20:12:03.730Z,28.81
2019-04-21T20:17:05.903Z,27.81
2019-04-21T20:19:24.392Z,27.78
2019-04-21T20:21:53.924Z,27.74
2019-04-21T20:24:28.007Z,28.12
2019-04-21T20:27:02.222Z,28.45
2019-04-21T20:29:44.496Z,28.93
2019-04-21T20:32:20.079Z,30.32
2019-04-21T20:34:47.692Z,29.82
2019-04-21T20:37:14.503Z,29.82
2019-04-21T20:39:41.841Z,29.87
2019-04-21T20:42:19.425Z,31.96
2019-04-21T20:44:54.294Z,35.04
2019-04-21T20:47:11.231Z,37.58
2019-04-21T20:49:43.209Z,38.84
2019-04-21T20:52:24.328Z,39.02
2019-04-21T20:54:48.119Z,39.23
2019-04-21T20:57:21.933Z,40.30
2019-04-21T20:59:50.887Z,39.76
2019-04-21T21:02:30.041Z,39.20
2019-04-21T21:04:45.758Z,38.64
2019-04-21T21:07:41.606Z,40.61
2019-04-21T21:10:00.362Z,37.15
2019-04-21T21:12:40.749Z,39.63
2019-04-21T21:14:55.485Z,38.42
2019-04-21T21:20:07.875Z,38.35
2019-04-21T21:22:29.404Z,39.08
2019-04-21T21:25:03.885Z,38.15
2019-04-21T21:27:32.157Z,41.03
2019-04-21T21:30:05.611Z,42.61
2019-04-21T21:32:37.328Z,46.05
2019-04-21T21:35:10.881Z,46.78
2019-04-21T21:37:42.081Z,48.67
2019-04-21T21:40:14.307Z,49.12
2019-04-21T21:42:30.527Z,48.09
2019-04-21T21:45:04.164Z,48.58
2019-04-21T21:47:46.326Z,51.15
2019-04-21T21:50:07.652Z,50.20
2019-04-21T21:52:39.879Z,51.49
2019-04-21T21:54:59.044Z,50.33
2019-04-21T21:57:28.630Z,49.66
2019-04-21T22:03:12.022Z,47.28
2019-04-21T22:05:42.101Z,49.71
2019-04-21T22:08:02.526Z,49.19
2019-04-21T22:10:31.746Z,50.91
2019-04-21T22:13:08.322Z,53.80
2019-04-21T22:15:33.788Z,54.49
2019-04-21T22:18:27.347Z,55.60
2019-04-21T22:20:55.101Z,57.23
2019-04-21T22:23:11.380Z,57.63
2019-04-21T22:25:39.913Z,56.98
2019-04-21T22:28:07.869Z,56.83
2019-04-21T22:30:43.851Z,55.92
2019-04-21T22:33:10.823Z,55.23
2019-04-21T22:35:46.308Z,55.32
2019-04-21T22:38:24.641Z,57.12
2019-04-21T22:40:55.246Z,55.27
2019-04-21T22:43:21.649Z,54.60
2019-04-21T22:45:45.238Z,55.96
2019-04-21T22:48:18.249Z,55.09
2019-04-21T22:50:46.598Z,54.63
2019-04-21T22:53:17.898Z,55.95
2019-04-21T22:55:49.618Z,56.81
2019-04-21T22:58:25.712Z,56.97
2019-04-21T23:00:54.995Z,57.46
2019-04-21T23:03:24.757Z,59.62
2019-04-21T23:05:53.695Z,59.22
2019-04-21T23:08:31.794Z,59.38
2019-04-21T23:11:00.822Z,60.13
2019-04-21T23:13:25.970Z,59.21
2019-04-21T23:15:58.792Z,59.99
2019-04-21T23:18:42.931Z,59.65
2019-04-21T23:21:13.558Z,58.96
2019-04-21T23:23:51.652Z,58.24
2019-04-21T23:26:23.444Z,58.69
2019-04-21T23:28:51.100Z,57.15
2019-04-21T23:31:26.767Z,57.43
2019-04-21T23:33:36.703Z,56.42
2019-04-21T23:36:12.975Z,57.55
2019-04-21T23:38:43.950Z,57.67
2019-04-21T23:41:11.077Z,57.77
2019-04-21T23:43:40.408Z,57.56
2019-04-21T23:46:19.832Z,59.65
2019-04-21T23:48:57.905Z,62.30
2019-04-21T23:51:25.895Z,63.32
2019-04-21T23:53:43.657Z,64.12
2019-04-21T23:56:20.256Z,64.90
2019-04-21T23:58:52.968Z,66.24
